createdAt,value
2023-04-21T00:01:12.985Z,8.20
2023-04-21T00:03:43.045Z,8.10
2023-04-21T00:06:11.430Z,8.10
2023-04-21T00:08:40.722Z,8.10
2023-04-21T00:11:09.275Z,8.10
2023-04-21T00:13:37.835Z,8.10
2023-04-21T00:16:06.615Z,8.00
2023-04-21T00:18:35.145Z,8.00
2023-04-21T00:21:05.079Z,8.00
2023-04-21T00:23:33.281Z,8.10
2023-04-21T00:26:02.928Z,8.10
2023-04-21T00:28:31.340Z,8.10
2023-04-21T00:30:59.682Z,8.10
2023-04-21T00:33:27.863Z,8.10
2023-04-21T00:35:56.943Z,8.10
2023-04-21T00:38:26.379Z,8.00
2023-04-21T00:40:54.598Z,8.00
2023-04-21T00:43:22.738Z,8.00
2023-04-21T00:45:50.865Z,8.00
2023-04-21T00:48:19.082Z,8.00
2023-04-21T00:50:47.495Z,8.00
2023-04-21T00:53:16.349Z,8.00
2023-04-21T00:55:46.651Z,7.90
2023-04-21T00:58:14.939Z,7.90
2023-04-21T01:00:44.688Z,7.90
2023-04-21T01:03:13.253Z,7.90
2023-04-21T01:05:42.492Z,7.90
2023-04-21T01:08:10.668Z,7.90
2023-04-21T01:10:38.760Z,7.90
2023-04-21T01:13:08.224Z,7.90
2023-04-21T01:15:36.325Z,7.90
2023-04-21T01:18:04.743Z,7.90
2023-04-21T01:20:33.144Z,8.00
2023-04-21T01:23:02.673Z,8.00
2023-04-21T01:25:30.760Z,8.00
2023-04-21T01:27:58.809Z,8.00
2023-04-21T01:30:27.027Z,8.00
2023-04-21T01:32:55.305Z,8.00
2023-04-21T01:35:23.478Z,8.00
2023-04-21T01:37:51.566Z,8.00
2023-04-21T01:40:21.130Z,8.00
2023-04-21T01:42:49.398Z,8.00
2023-04-21T01:45:17.507Z,8.00
2023-04-21T01:47:45.762Z,8.00
2023-04-21T01:50:15.336Z,8.00
2023-04-21T01:52:43.489Z,8.00
2023-04-21T01:55:11.680Z,8.10
2023-04-21T01:57:41.179Z,8.00
2023-04-21T02:00:10.610Z,8.00
2023-04-21T02:02:38.873Z,8.00
2023-04-21T02:05:08.001Z,7.90
2023-04-21T02:07:36.113Z,8.00
2023-04-21T02:10:05.654Z,7.90
2023-04-21T02:12:33.837Z,8.00
2023-04-21T02:15:03.453Z,8.00
2023-04-21T02:17:31.736Z,8.00
2023-04-21T02:20:01.041Z,8.00
2023-04-21T02:22:30.202Z,8.00
2023-04-21T02:24:58.357Z,8.00
2023-04-21T02:27:26.528Z,8.00
2023-04-21T02:29:54.730Z,8.00
2023-04-21T02:32:26.226Z,8.00
2023-04-21T02:34:54.494Z,8.00
2023-04-21T02:37:22.704Z,7.90
2023-04-21T02:39:50.864Z,7.90
2023-04-21T02:42:19.008Z,7.90
2023-04-21T02:44:47.225Z,7.90
2023-04-21T02:47:17.035Z,7.90
2023-04-21T02:49:46.576Z,7.80
2023-04-21T02:52:14.712Z,7.80
2023-04-21T02:54:42.818Z,7.80
2023-04-21T02:57:11.012Z,7.80
2023-04-21T02:59:39.110Z,7.90
2023-04-21T03:02:07.190Z,7.90
2023-04-21T03:04:35.509Z,7.90
2023-04-21T03:07:05.205Z,7.80
2023-04-21T03:09:33.501Z,7.90
2023-04-21T03:12:01.674Z,7.90
2023-04-21T03:14:29.675Z,7.90
2023-04-21T03:16:57.762Z,7.90
2023-04-21T03:19:25.975Z,7.80
2023-04-21T03:21:54.016Z,7.80
2023-04-21T03:24:23.480Z,7.80
2023-04-21T03:26:51.593Z,7.80
2023-04-21T03:29:20.154Z,7.80
2023-04-21T03:31:48.384Z,7.80
2023-04-21T03:34:16.768Z,7.90
2023-04-21T03:36:44.899Z,7.90
2023-04-21T03:39:19.970Z,7.90
2023-04-21T03:41:49.810Z,7.90
2023-04-21T03:44:18.018Z,7.90
2023-04-21T03:46:46.124Z,7.90
2023-04-21T03:49:14.371Z,7.90
2023-04-21T03:51:42.452Z,7.90
2023-04-21T03:54:10.525Z,7.90
2023-04-21T03:56:38.642Z,7.90
2023-04-21T03:59:08.184Z,7.90
2023-04-21T04:01:36.973Z,7.90
2023-04-21T04:04:05.359Z,7.90
2023-04-21T04:06:34.221Z,7.90
2023-04-21T04:09:04.554Z,7.90
2023-04-21T04:11:33.049Z,7.90
2023-04-21T04:14:01.990Z,7.90
2023-04-21T04:16:31.672Z,7.80
2023-04-21T04:19:00.366Z,7.80
2023-04-21T04:21:28.631Z,7.90
2023-04-21T04:23:56.870Z,7.80
2023-04-21T04:26:25.710Z,7.80
2023-04-21T04:28:56.221Z,7.80
2023-04-21T04:31:25.514Z,7.90
2023-04-21T04:33:55.773Z,7.80
2023-04-21T04:36:24.178Z,7.80
2023-04-21T04:38:52.742Z,7.80
2023-04-21T04:41:21.012Z,7.80
2023-04-21T04:43:49.188Z,7.90
2023-04-21T04:46:17.407Z,7.90
2023-04-21T04:48:45.690Z,7.90
2023-04-21T04:51:15.234Z,7.90
2023-04-21T04:53:43.288Z,7.90
2023-04-21T04:56:11.379Z,7.90
2023-04-21T04:58:39.478Z,8.00
2023-04-21T05:01:14.150Z,7.90
2023-04-21T05:03:42.532Z,7.90
2023-04-21T05:06:11.108Z,8.00
2023-04-21T05:08:41.378Z,8.00
2023-04-21T05:11:09.642Z,8.00
2023-04-21T05:13:40.037Z,7.90
2023-04-21T05:16:10.253Z,8.00
2023-04-21T05:18:39.067Z,8.00
2023-04-21T05:21:07.344Z,8.10
2023-04-21T05:23:35.599Z,8.00
2023-04-21T05:26:05.262Z,8.10
2023-04-21T05:28:33.477Z,8.10
2023-04-21T05:31:01.717Z,8.10
2023-04-21T05:33:31.826Z,8.10
2023-04-21T05:36:00.237Z,8.20
2023-04-21T05:38:28.340Z,8.20
2023-04-21T05:40:56.617Z,8.20
2023-04-21T05:43:26.174Z,8.30
2023-04-21T05:45:54.474Z,8.30
2023-04-21T05:48:23.487Z,8.30
2023-04-21T05:50:51.662Z,8.30
2023-04-21T05:53:19.795Z,8.40
2023-04-21T05:55:47.946Z,8.40
2023-04-21T05:58:16.026Z,8.40
2023-04-21T06:00:47.923Z,8.50
2023-04-21T06:03:17.428Z,8.50
2023-04-21T06:05:45.754Z,8.50
2023-04-21T06:08:14.005Z,8.60
2023-04-21T06:10:42.866Z,8.60
2023-04-21T06:13:11.219Z,8.70
2023-04-21T06:15:39.481Z,8.70
2023-04-21T06:18:09.303Z,8.70
2023-04-21T06:20:37.477Z,8.80
2023-04-21T06:23:05.659Z,8.80
2023-04-21T06:25:34.027Z,8.90
2023-04-21T06:28:02.254Z,8.90
2023-04-21T06:30:30.415Z,8.90
2023-04-21T06:32:58.786Z,8.90
2023-04-21T06:35:28.344Z,9.00
2023-04-21T06:37:56.581Z,9.10
2023-04-21T06:40:24.767Z,9.20
2023-04-21T06:42:52.871Z,9.40
2023-04-21T06:45:21.155Z,9.50
2023-04-21T06:47:49.249Z,9.40
2023-04-21T06:50:17.601Z,9.50
2023-04-21T06:52:47.085Z,9.60
2023-04-21T06:55:15.343Z,9.60
2023-04-21T06:57:43.680Z,9.60
2023-04-21T07:00:12.862Z,9.90
2023-04-21T07:02:41.807Z,10.00
2023-04-21T07:05:10.431Z,10.20
2023-04-21T07:07:38.562Z,10.30
2023-04-21T07:10:09.207Z,10.40
2023-04-21T07:12:37.351Z,10.40
2023-04-21T07:15:06.413Z,10.70
2023-04-21T07:17:34.658Z,10.80
2023-04-21T07:20:02.885Z,10.90
2023-04-21T07:22:31.640Z,11.00
2023-04-21T07:25:00.014Z,11.00
2023-04-21T07:27:29.841Z,11.00
2023-04-21T07:29:58.246Z,11.10
2023-04-21T07:32:26.839Z,11.00
2023-04-21T07:34:55.282Z,11.20
2023-04-21T07:37:24.536Z,11.00
2023-04-21T07:39:53.060Z,11.00
2023-04-21T07:42:21.188Z,10.90
2023-04-21T07:44:50.709Z,10.90
2023-04-21T07:47:18.833Z,11.00
2023-04-21T07:49:46.989Z,11.00
2023-04-21T07:52:15.144Z,11.10
2023-04-21T07:54:43.282Z,11.30
2023-04-21T07:57:11.478Z,11.40
2023-04-21T07:59:39.680Z,11.50
2023-04-21T08:02:09.660Z,11.40
2023-04-21T08:04:38.140Z,11.40
2023-04-21T08:07:06.694Z,11.40
2023-04-21T08:09:35.315Z,11.50
2023-04-21T08:12:03.886Z,11.50
2023-04-21T08:14:32.355Z,11.80
2023-04-21T08:17:00.740Z,11.70
2023-04-21T08:19:30.329Z,11.60
2023-04-21T08:21:58.721Z,12.00
2023-04-21T08:24:26.784Z,12.20
2023-04-21T08:26:54.917Z,12.30
2023-04-21T08:29:23.494Z,12.60
2023-04-21T08:31:51.694Z,12.80
2023-04-21T08:34:20.908Z,12.20
2023-04-21T08:36:51.328Z,12.30
2023-04-21T08:39:19.634Z,12.30
2023-04-21T08:41:48.977Z,12.20
2023-04-21T08:44:19.516Z,12.80
2023-04-21T08:46:51.482Z,12.80
2023-04-21T08:49:21.983Z,12.60
2023-04-21T08:51:51.873Z,12.60
2023-04-21T08:54:20.133Z,12.50
2023-04-21T08:56:49.173Z,12.60
2023-04-21T08:59:17.489Z,13.00
2023-04-21T09:02:19.894Z,13.10
2023-04-21T09:04:50.496Z,13.10
2023-04-21T09:07:34.200Z,12.80
2023-04-21T09:10:03.309Z,12.60
2023-04-21T09:12:31.909Z,12.90
2023-04-21T09:15:00.981Z,12.80
2023-04-21T09:17:32.690Z,12.80
2023-04-21T09:20:15.508Z,12.90
2023-04-21T09:22:45.564Z,12.90
2023-04-21T09:25:18.635Z,12.80
2023-04-21T09:27:47.692Z,12.90
2023-04-21T09:30:20.662Z,12.90
2023-04-21T09:32:48.890Z,13.30
2023-04-21T09:35:17.647Z,13.10
2023-04-21T09:37:47.297Z,13.10
2023-04-21T09:40:18.771Z,13.40
2023-04-21T09:42:47.705Z,13.30
2023-04-21T09:45:32.894Z,13.40
2023-04-21T09:48:07.298Z,13.60
2023-04-21T09:51:07.507Z,13.70
2023-04-21T09:53:28.803Z,13.60
2023-04-21T09:55:59.203Z,13.40
2023-04-21T09:58:30.937Z,13.60
2023-04-21T10:00:59.734Z,13.60
2023-04-21T10:03:30.175Z,13.80
2023-04-21T10:05:58.559Z,13.80
2023-04-21T10:08:29.151Z,14.00
2023-04-21T10:10:57.632Z,13.70
2023-04-21T10:13:26.259Z,13.70
2023-04-21T10:16:03.667Z,13.70
2023-04-21T10:18:32.113Z,13.60
2023-04-21T10:21:04.064Z,13.50
2023-04-21T10:23:37.926Z,13.40
2023-04-21T10:26:09.700Z,13.60
2023-04-21T10:28:45.791Z,13.70
2023-04-21T10:31:32.796Z,13.50
2023-04-21T10:34:37.328Z,13.60
2023-04-21T10:37:19.767Z,13.60
2023-04-21T10:39:54.708Z,13.70
2023-04-21T10:42:28.380Z,13.80
2023-04-21T10:45:12.319Z,13.90
2023-04-21T10:47:49.326Z,14.10
2023-04-21T10:50:20.628Z,14.30
2023-04-21T10:53:08.498Z,14.10
2023-04-21T10:55:38.674Z,14.20
2023-04-21T10:58:09.139Z,14.20
2023-04-21T11:00:39.317Z,14.00
2023-04-21T11:03:08.961Z,14.20
2023-04-21T11:05:39.484Z,14.20
2023-04-21T11:08:09.826Z,14.20
2023-04-21T11:10:56.258Z,14.10
2023-04-21T11:13:26.061Z,14.30
2023-04-21T11:15:58.577Z,14.30
2023-04-21T11:18:42.454Z,14.80
2023-04-21T11:21:13.647Z,14.70
2023-04-21T11:23:42.932Z,14.70
2023-04-21T11:26:12.456Z,14.80
2023-04-21T11:28:41.977Z,14.50
2023-04-21T11:31:12.710Z,14.50
2023-04-21T11:33:41.235Z,14.80
2023-04-21T11:36:10.096Z,15.40
2023-04-21T11:38:40.111Z,16.10
2023-04-21T11:41:09.492Z,15.80
2023-04-21T11:43:39.551Z,15.80
2023-04-21T11:46:19.197Z,16.00
2023-04-21T11:48:47.446Z,15.90
2023-04-21T11:51:22.058Z,15.80
2023-04-21T11:53:50.803Z,16.60
2023-04-21T11:56:21.724Z,16.20
2023-04-21T11:58:53.326Z,16.00
2023-04-21T12:01:22.598Z,16.00
2023-04-21T12:03:55.382Z,16.30
2023-04-21T12:06:27.013Z,16.80
2023-04-21T12:09:01.063Z,17.40
2023-04-21T12:11:30.320Z,17.40
2023-04-21T12:14:00.156Z,17.20
2023-04-21T12:16:29.750Z,17.40
2023-04-21T12:18:58.608Z,17.00
2023-04-21T12:21:30.381Z,17.10
2023-04-21T12:23:58.803Z,16.60
2023-04-21T12:26:27.175Z,16.80
2023-04-21T12:28:56.003Z,16.80
2023-04-21T12:31:25.859Z,17.00
2023-04-21T12:33:54.225Z,17.20
2023-04-21T12:36:22.546Z,17.70
2023-04-21T12:38:50.775Z,17.00
2023-04-21T12:41:19.021Z,16.60
2023-04-21T12:43:47.197Z,16.70
2023-04-21T12:46:15.385Z,16.60
2023-04-21T12:48:45.269Z,16.50
2023-04-21T12:51:13.508Z,16.10
2023-04-21T12:53:41.672Z,16.20
2023-04-21T12:56:09.788Z,16.20
2023-04-21T12:58:37.976Z,16.00
2023-04-21T13:01:07.294Z,16.00
2023-04-21T13:03:35.705Z,16.00
2023-04-21T13:06:05.687Z,16.00
2023-04-21T13:08:33.894Z,15.90
2023-04-21T13:11:02.011Z,16.00
2023-04-21T13:13:30.247Z,16.20
2023-04-21T13:15:59.437Z,17.10
2023-04-21T13:18:27.546Z,17.20
2023-04-21T13:20:55.623Z,16.30
2023-04-21T13:23:25.239Z,16.50
2023-04-21T13:25:53.439Z,16.60
2023-04-21T13:28:21.826Z,16.70
2023-04-21T13:30:52.401Z,16.90
2023-04-21T13:33:21.277Z,16.50
2023-04-21T13:35:49.834Z,16.10
2023-04-21T13:38:18.333Z,16.00
2023-04-21T13:40:49.133Z,16.30
2023-04-21T13:43:17.561Z,16.50
2023-04-21T13:45:46.204Z,16.10
2023-04-21T13:48:14.491Z,15.90
2023-04-21T13:50:42.776Z,15.90
2023-04-21T13:53:10.993Z,16.20
2023-04-21T13:55:39.294Z,16.50
2023-04-21T13:58:08.995Z,16.40
2023-04-21T14:00:37.157Z,16.40
2023-04-21T14:03:05.898Z,16.80
2023-04-21T14:05:34.594Z,16.60
2023-04-21T14:08:02.950Z,16.50
2023-04-21T14:10:31.250Z,16.50
2023-04-21T14:12:59.447Z,16.60
2023-04-21T14:15:29.128Z,16.30
2023-04-21T14:17:57.951Z,16.20
2023-04-21T14:20:27.012Z,16.30
2023-04-21T14:22:55.214Z,16.40
2023-04-21T14:25:23.419Z,16.20
2023-04-21T14:27:51.811Z,16.10
2023-04-21T14:30:20.038Z,16.40
2023-04-21T14:32:50.000Z,16.50
2023-04-21T14:35:18.488Z,16.40
2023-04-21T14:37:46.788Z,16.40
2023-04-21T14:40:14.902Z,16.50
2023-04-21T14:42:43.880Z,16.70
2023-04-21T14:45:12.843Z,17.00
2023-04-21T14:47:41.284Z,17.10
2023-04-21T14:50:11.941Z,17.40
2023-04-21T14:52:40.124Z,17.50
2023-04-21T14:55:09.194Z,17.00
2023-04-21T14:57:37.538Z,17.10
2023-04-21T15:00:07.743Z,17.10
2023-04-21T15:02:36.164Z,16.70
2023-04-21T15:05:05.018Z,16.70
2023-04-21T15:07:34.938Z,16.70
2023-04-21T15:10:03.254Z,16.60
2023-04-21T15:12:31.654Z,16.80
2023-04-21T15:15:00.062Z,16.80
2023-04-21T15:17:28.255Z,16.90
2023-04-21T15:19:56.867Z,17.00
2023-04-21T15:22:25.556Z,16.90
2023-04-21T15:24:55.908Z,16.90
2023-04-21T15:27:24.494Z,16.90
2023-04-21T15:29:53.532Z,17.10
2023-04-21T15:32:22.934Z,17.20
2023-04-21T15:34:51.101Z,17.10
2023-04-21T15:37:22.940Z,17.00
2023-04-21T15:39:53.842Z,17.00
2023-04-21T15:42:22.243Z,16.90
2023-04-21T15:44:51.524Z,17.00
2023-04-21T15:47:23.067Z,17.20
2023-04-21T15:49:51.445Z,17.20
2023-04-21T15:52:19.562Z,17.10
2023-04-21T15:54:48.074Z,16.90
2023-04-21T15:57:17.555Z,17.00
2023-04-21T15:59:45.876Z,17.00
2023-04-21T16:02:14.541Z,17.00
2023-04-21T16:04:44.439Z,17.00
2023-04-21T16:07:13.085Z,17.00
2023-04-21T16:09:41.784Z,16.80
2023-04-21T16:12:10.540Z,16.70
2023-04-21T16:14:54.497Z,16.60
2023-04-21T16:17:27.737Z,16.50
2023-04-21T16:19:56.118Z,16.40
2023-04-21T16:22:24.476Z,16.40
2023-04-21T16:24:53.323Z,16.40
2023-04-21T16:27:21.616Z,16.40
2023-04-21T16:29:51.597Z,16.40
2023-04-21T16:32:20.087Z,16.50
2023-04-21T16:34:48.439Z,16.50
2023-04-21T16:37:16.768Z,16.50
2023-04-21T16:39:44.808Z,16.60
2023-04-21T16:42:12.924Z,16.70
2023-04-21T16:44:41.382Z,16.70
2023-04-21T16:47:11.453Z,16.70
2023-04-21T16:49:39.767Z,16.60
2023-04-21T16:52:08.059Z,16.60
2023-04-21T16:54:36.429Z,16.60
2023-04-21T16:57:04.880Z,16.50
2023-04-21T16:59:33.396Z,16.50
2023-04-21T17:02:01.751Z,16.40
2023-04-21T17:04:31.481Z,16.40
2023-04-21T17:06:59.716Z,16.30
2023-04-21T17:09:27.923Z,16.30
2023-04-21T17:11:56.079Z,16.30
2023-04-21T17:14:24.228Z,16.30
2023-04-21T17:16:52.441Z,16.30
2023-04-21T17:19:20.690Z,16.30
2023-04-21T17:21:50.361Z,16.30
2023-04-21T17:24:18.523Z,16.30
2023-04-21T17:26:46.636Z,16.30
2023-04-21T17:29:14.900Z,16.20
2023-04-21T17:31:44.438Z,16.20
2023-04-21T17:34:12.709Z,16.10
2023-04-21T17:36:41.214Z,16.10
2023-04-21T17:39:10.723Z,16.10
2023-04-21T17:41:38.908Z,16.10
2023-04-21T17:44:07.206Z,16.10
2023-04-21T17:46:35.580Z,16.10
2023-04-21T17:49:03.959Z,16.10
2023-04-21T17:51:32.732Z,16.10
2023-04-21T17:54:00.995Z,16.10
2023-04-21T17:56:30.597Z,16.10
2023-04-21T17:58:58.721Z,16.00
2023-04-21T18:01:27.484Z,16.00
2023-04-21T18:03:59.301Z,15.70
2023-04-21T18:06:28.944Z,14.20
2023-04-21T18:08:57.371Z,13.20
2023-04-21T18:11:25.562Z,12.90
2023-04-21T18:13:54.919Z,12.50
2023-04-21T18:16:23.113Z,12.40
2023-04-21T18:18:51.234Z,12.20
2023-04-21T18:21:19.401Z,12.20
2023-04-21T18:23:47.509Z,12.30
2023-04-21T18:26:15.688Z,12.30
2023-04-21T18:28:43.846Z,12.40
2023-04-21T18:31:13.424Z,12.30
2023-04-21T18:33:41.552Z,12.40
2023-04-21T18:36:09.780Z,12.50
2023-04-21T18:38:37.898Z,12.50
2023-04-21T18:41:06.030Z,12.50
2023-04-21T18:43:34.130Z,12.40
2023-04-21T18:46:02.379Z,12.20
2023-04-21T18:48:31.921Z,12.10
2023-04-21T18:51:00.453Z,11.90
2023-04-21T18:53:28.617Z,11.80
2023-04-21T18:55:56.753Z,11.80
2023-04-21T18:58:24.823Z,11.70
2023-04-21T19:00:52.988Z,11.70
2023-04-21T19:03:21.442Z,11.70
2023-04-21T19:05:51.202Z,11.60
2023-04-21T19:08:30.058Z,11.60
2023-04-21T19:11:02.629Z,11.50
2023-04-21T19:13:30.800Z,11.40
2023-04-21T19:15:59.133Z,11.40
2023-04-21T19:18:27.280Z,11.40
2023-04-21T19:20:56.738Z,11.30
2023-04-21T19:23:24.771Z,11.40
2023-04-21T19:25:55.101Z,11.20
2023-04-21T19:28:23.215Z,11.20
2023-04-21T19:30:51.383Z,11.10
2023-04-21T19:33:19.438Z,11.20
2023-04-21T19:35:47.662Z,11.20
2023-04-21T19:38:17.171Z,11.10
2023-04-21T19:40:45.799Z,11.20
2023-04-21T19:43:15.118Z,11.10
2023-04-21T19:45:43.707Z,11.00
2023-04-21T19:48:12.797Z,11.00
2023-04-21T19:50:41.011Z,11.00
2023-04-21T19:53:14.433Z,11.00
2023-04-21T19:55:44.403Z,10.90
2023-04-21T19:58:13.219Z,10.90
2023-04-21T20:00:43.229Z,10.90
2023-04-21T20:03:12.372Z,10.90
2023-04-21T20:05:40.717Z,10.90
2023-04-21T20:08:09.099Z,10.90
2023-04-21T20:10:41.926Z,10.80
2023-04-21T20:13:11.681Z,10.80
2023-04-21T20:15:40.157Z,10.80
2023-04-21T20:18:09.028Z,10.80
2023-04-21T20:20:37.293Z,10.70
2023-04-21T20:23:05.774Z,10.80
2023-04-21T20:25:33.849Z,10.80
2023-04-21T20:28:02.083Z,10.90
2023-04-21T20:30:31.533Z,10.70
2023-04-21T20:32:59.728Z,10.80
2023-04-21T20:35:30.546Z,10.80
2023-04-21T20:38:01.333Z,10.80
2023-04-21T20:40:30.109Z,10.80
2023-04-21T20:42:58.761Z,10.80
2023-04-21T20:45:27.774Z,10.80
2023-04-21T20:47:57.473Z,10.80
2023-04-21T20:50:26.012Z,10.80
2023-04-21T20:52:54.182Z,10.80
2023-04-21T20:55:22.227Z,10.70
2023-04-21T20:57:50.505Z,10.70
2023-04-21T21:00:19.366Z,10.80
2023-04-21T21:02:47.604Z,10.90
2023-04-21T21:05:17.174Z,11.00
2023-04-21T21:07:45.322Z,11.00
2023-04-21T21:10:16.772Z,11.00
2023-04-21T21:12:46.352Z,11.10
2023-04-21T21:15:14.391Z,11.10
2023-04-21T21:17:42.618Z,11.10
2023-04-21T21:20:11.797Z,11.20
2023-04-21T21:22:43.157Z,11.10
2023-04-21T21:25:11.540Z,11.10
2023-04-21T21:27:39.596Z,11.10
2023-04-21T21:30:09.052Z,11.00
2023-04-21T21:32:37.174Z,11.00
2023-04-21T21:35:07.518Z,11.00
2023-04-21T21:37:35.711Z,10.90
2023-04-21T21:40:06.095Z,10.90
2023-04-21T21:42:34.183Z,10.80
2023-04-21T21:45:02.301Z,10.80
2023-04-21T21:47:30.428Z,10.70
2023-04-21T21:49:59.118Z,10.70
2023-04-21T21:52:28.624Z,10.60
2023-04-21T21:54:56.955Z,10.60
2023-04-21T21:57:26.774Z,10.50
2023-04-21T21:59:54.884Z,10.40
2023-04-21T22:02:23.059Z,10.40
2023-04-21T22:04:51.555Z,10.40
2023-04-21T22:07:19.982Z,10.30
2023-04-21T22:09:48.239Z,10.30
2023-04-21T22:12:16.373Z,10.30
2023-04-21T22:14:47.067Z,10.20
2023-04-21T22:17:15.915Z,10.20
2023-04-21T22:19:44.061Z,10.10
2023-04-21T22:22:12.179Z,10.00
2023-04-21T22:24:40.399Z,9.90
2023-04-21T22:27:08.684Z,9.80
2023-04-21T22:29:37.997Z,9.70
2023-04-21T22:32:07.855Z,9.70
2023-04-21T22:34:35.984Z,9.60
2023-04-21T22:37:05.675Z,9.50
2023-04-21T22:39:33.753Z,9.50
2023-04-21T22:42:02.453Z,9.40
2023-04-21T22:44:30.681Z,9.30
2023-04-21T22:46:59.168Z,9.20
2023-04-21T22:49:28.614Z,9.20
2023-04-21T22:51:56.702Z,9.20
2023-04-21T22:54:24.834Z,9.20
2023-04-21T22:56:53.131Z,9.10
2023-04-21T22:59:21.194Z,9.00
2023-04-21T23:01:49.408Z,9.00
2023-04-21T23:04:17.956Z,9.00
2023-04-21T23:06:47.386Z,9.00
2023-04-21T23:09:15.402Z,8.90
2023-04-21T23:11:43.681Z,8.80
2023-04-21T23:14:11.618Z,8.80
2023-04-21T23:16:39.789Z,8.80
2023-04-21T23:19:07.924Z,8.80
2023-04-21T23:21:36.146Z,8.80
2023-04-21T23:24:05.860Z,8.80
2023-04-21T23:26:33.995Z,8.70
2023-04-21T23:29:02.028Z,8.70
2023-04-21T23:31:30.703Z,8.60
2023-04-21T23:34:00.109Z,8.70
2023-04-21T23:36:28.383Z,8.60
2023-04-21T23:38:56.482Z,8.50
2023-04-21T23:41:25.963Z,8.50
2023-04-21T23:43:54.079Z,8.50
2023-04-21T23:46:22.147Z,8.40
2023-04-21T23:48:50.260Z,8.30
2023-04-21T23:51:18.578Z,8.30
2023-04-21T23:53:47.727Z,8.30
2023-04-21T23:56:16.410Z,8.30
2023-04-21T23:58:45.891Z,8.30
